map of LET home
LET - Airport
Location
City:  Leticia, Amazonas, Colombia
Name:General Alfredo Vásquez Cobo International Airport
ICAO:SKLT
IATA:LET

Details
Type:Airport (Aerodrome, Airfield)
Use:International (customs port of entry)
Latitude:4°11'35"S (-4.193146)
Longitude:69°56'34"W (-69.942688)
Elevation:277 ft (84 m)
Variation:9.16°W (WMM2015 magnetic declination)
-0.16° annual change
Runways:1
Longest:6168 × 131 ft (1880 × 40 m), paved

Time
Time Zone:UTC-5
Local Time:

Weather
METAR:SKLT 161300Z 00000KT 9999 OVC008 27/26 A2987

Related Locations
Nearby:
Farthest:NTX: 12333 mi / 19848 km
Natuna Ranai, Natuna Island, RI, ID

Find:

   beyond  
but within

Other Information
Maps:
NOTAMs:
Links:
Sources:

  
  • flag of Colombia
  • flag of Amazonas
  

Airport Diagram

Airport diagram for LET

Larger airport diagram (OBSOLETE) from NGA

Sectional Chart

Flight Planning
at skyvector.com

Satellite Image

Google Maps Satellite view

 

Copyright © 2004-2018 Karl L. Swartz. All rights reserved.
The Great Circle Mapper name and logo are trademarks of the Great Circle Mapper.
All other trademarks mentioned herein belong to their respective owners.
Please see credits for attibutions and further copyright information.

  Follow gcmap on Facebook Follow gcmap on Twitter Follow gcmap on Google+ GCmap on LinkedIn

hCard Microformat

Geo Microformat